Terminal Aerodrome Forecast
Issued by NWS Caribou, ME

Current Version | Previous Version | Text Only | Print | Product List | Glossary On
Versions: 1 2 3 4 5 6 7 8 9 10 11 12 13 14
000 FTUS41 KCAR 240534 TAFBGR TAF KBGR 240534Z 2406/2506 18005KT P6SM SCT030 OVC050 FM240900 14004KT 6SM BR SCT015 OVC025 FM241200 14004KT 5SM -RA BR SCT008 OVC015 FM241500 14012KT 3SM -RA BR OVC004 FM242000 16010KT 2SM -DZ BR OVC004=

USA.gov is the U.S. government's official web portal to all federal, state and local government web resources and services.